YMML/MEL METAR and TAF weather

Enter ICAO airport designator
Station Type Date Time Source
YMML METAR 2022/06/26 07:30 UTC NOAA

YMML 260730Z 25007KT 9999 FEW032 BKN055 09/06 Q1025


Station Type Date Time Source
YMML Decoded METAR 2022/06/26 07:30 UTC NOAA

Melbourne Airport, Australia (YMML) 37-40S 144-50E 141M
Jun 26, 2022 - 03:30 AM EDT / 2022.06.26 0730 UTC
Wind: from the WSW (250 degrees) at 8 MPH (7 KT):0
Visibility: greater than 7 mile(s):0
Sky conditions: mostly cloudy
Temperature: 48 F (9 C)
Dew Point: 42 F (6 C)
Relative Humidity: 81%
Pressure (altimeter): 30.27 in. Hg (1025 hPa)
ob: YMML 260730Z 25007KT 9999 FEW032 BKN055 09/06 Q1025
cycle: 7

Station Type Date Time Source
YMML TAF 2022/06/26 06:39 UTC NOAA

TAF YMML 260518Z 2606/2712 22010KT 9999 -SHRA BKN035
FM261000 26008KT 9999 NSW BKN040
FM270200 23010KT 9999 BKN030
FM271000 33010KT 9999 SCT030 INTER 2606/2607 25016G26KT 5000 SHRA SCT020

Example: see airport list